createdAt,value
2023-02-09T00:00:09.693Z,23.27
2023-02-09T00:06:12.736Z,25.10
2023-02-09T00:12:24.044Z,24.27
2023-02-09T00:18:18.890Z,25.77
2023-02-09T00:24:12.273Z,23.07
2023-02-09T00:30:06.370Z,25.77
2023-02-09T00:36:01.143Z,23.97
2023-02-09T00:42:10.960Z,25.37
2023-02-09T00:48:04.405Z,24.93
2023-02-09T00:53:59.369Z,24.73
2023-02-09T00:59:52.380Z,24.63
2023-02-09T01:05:45.464Z,25.23
2023-02-09T01:11:40.338Z,26.07
2023-02-09T01:17:33.793Z,25.40
2023-02-09T01:23:27.314Z,24.67
2023-02-09T01:29:22.954Z,24.17
2023-02-09T01:35:15.870Z,24.17
2023-02-09T01:41:08.849Z,23.60
2023-02-09T01:47:05.879Z,24.47
2023-02-09T01:52:59.375Z,25.20
2023-02-09T01:58:54.358Z,23.57
2023-02-09T02:04:49.186Z,22.57
2023-02-09T02:10:42.608Z,24.37
2023-02-09T02:16:49.736Z,23.00
2023-02-09T02:22:58.982Z,22.03
2023-02-09T02:29:24.522Z,20.83
2023-02-09T02:35:26.485Z,20.33
2023-02-09T02:41:27.698Z,22.00
2023-02-09T02:47:22.110Z,21.60
2023-02-09T02:53:18.884Z,21.33
2023-02-09T02:59:20.026Z,22.00
2023-02-09T03:05:13.387Z,20.90
2023-02-09T03:11:09.708Z,20.77
2023-02-09T03:17:14.555Z,22.50
2023-02-09T03:23:13.469Z,21.40
2023-02-09T03:29:10.808Z,19.53
2023-02-09T03:35:03.764Z,21.97
2023-02-09T03:40:57.265Z,20.50
2023-02-09T03:46:52.194Z,20.87
2023-02-09T03:52:45.695Z,20.27
2023-02-09T03:58:39.191Z,20.10
2023-02-09T04:04:34.020Z,20.30
2023-02-09T04:10:27.436Z,20.37
2023-02-09T04:16:21.423Z,18.80
2023-02-09T04:22:15.795Z,18.53
2023-02-09T04:28:10.448Z,20.30
2023-02-09T04:34:03.558Z,21.73
2023-02-09T04:39:57.851Z,19.57
2023-02-09T04:45:51.053Z,20.33
2023-02-09T04:51:44.154Z,19.80
2023-02-09T04:57:56.545Z,21.53
2023-02-09T05:03:50.127Z,19.77
2023-02-09T05:09:43.147Z,19.33
2023-02-09T05:15:37.786Z,17.10
2023-02-09T05:21:30.703Z,18.07
2023-02-09T05:27:23.742Z,18.97
2023-02-09T05:33:18.091Z,18.30
2023-02-09T05:39:11.531Z,18.17
2023-02-09T05:45:04.706Z,17.77
2023-02-09T05:50:59.528Z,16.97
2023-02-09T05:56:53.065Z,17.97
2023-02-09T06:02:46.364Z,16.47
2023-02-09T06:08:41.203Z,15.30
2023-02-09T06:14:34.690Z,15.53
2023-02-09T06:20:27.774Z,15.20
2023-02-09T06:26:22.823Z,15.90
2023-02-09T06:32:15.835Z,14.63
2023-02-09T06:38:08.943Z,15.07
2023-02-09T06:44:04.385Z,16.40
2023-02-09T06:49:57.829Z,16.30
2023-02-09T06:55:51.139Z,15.80
2023-02-09T07:01:45.777Z,14.27
2023-02-09T07:07:38.875Z,14.57
2023-02-09T07:13:32.553Z,15.23
2023-02-09T07:19:27.070Z,14.30
2023-02-09T07:25:20.295Z,14.80
2023-02-09T07:31:15.690Z,16.60
2023-02-09T07:37:10.057Z,12.70
2023-02-09T07:43:03.483Z,15.17
2023-02-09T07:49:00.852Z,14.60
2023-02-09T07:54:55.644Z,14.10
2023-02-09T08:00:50.228Z,14.10
2023-02-09T08:06:46.101Z,12.87
2023-02-09T08:12:59.355Z,12.20
2023-02-09T08:18:56.167Z,11.70
2023-02-09T08:24:49.917Z,10.40
2023-02-09T08:30:44.334Z,11.33
2023-02-09T08:36:37.969Z,10.20
2023-02-09T08:42:31.016Z,10.97
2023-02-09T08:48:25.328Z,9.63
2023-02-09T08:54:18.764Z,10.50
2023-02-09T09:00:13.606Z,9.80
2023-02-09T09:06:09.518Z,9.70
2023-02-09T09:12:03.055Z,10.20
2023-02-09T09:17:56.187Z,9.10
2023-02-09T09:23:50.683Z,9.30
2023-02-09T09:29:44.268Z,8.27
2023-02-09T09:35:37.330Z,8.70
2023-02-09T09:41:34.441Z,8.73
2023-02-09T09:47:36.141Z,8.73
2023-02-09T09:53:33.278Z,9.00
2023-02-09T09:59:32.060Z,9.57
2023-02-09T10:05:27.383Z,8.50
2023-02-09T10:11:24.866Z,8.40
2023-02-09T10:17:19.689Z,8.20
2023-02-09T10:23:22.288Z,7.73
2023-02-09T10:29:25.500Z,8.07
2023-02-09T10:35:29.348Z,8.63
2023-02-09T10:41:23.878Z,7.50
2023-02-09T10:47:28.606Z,8.47
2023-02-09T10:53:26.528Z,8.33
2023-02-09T10:59:21.656Z,8.00
2023-02-09T11:05:34.045Z,8.27
2023-02-09T11:11:33.586Z,8.90
2023-02-09T11:17:29.218Z,8.50
2023-02-09T11:23:39.636Z,8.43
2023-02-09T11:29:42.249Z,7.30
2023-02-09T11:35:48.121Z,7.77
2023-02-09T11:42:03.002Z,7.80
2023-02-09T11:48:05.877Z,7.80
2023-02-09T11:54:04.591Z,8.47
2023-02-09T12:00:00.471Z,7.73
2023-02-09T12:05:56.717Z,8.17
2023-02-09T12:12:05.691Z,7.70
2023-02-09T12:18:03.041Z,9.50
2023-02-09T12:23:57.399Z,7.80
2023-02-09T12:29:50.406Z,8.27
2023-02-09T12:35:44.610Z,8.70
2023-02-09T12:42:11.449Z,7.77
2023-02-09T12:48:17.869Z,7.93
2023-02-09T12:54:32.042Z,8.47
2023-02-09T13:00:41.765Z,8.30
2023-02-09T13:06:41.708Z,8.03
2023-02-09T13:12:40.390Z,8.07
2023-02-09T13:18:43.002Z,7.77
2023-02-09T13:24:42.706Z,7.70
2023-02-09T13:30:35.686Z,8.10
2023-02-09T13:36:39.478Z,8.53
2023-02-09T13:42:38.078Z,8.50
2023-02-09T13:48:35.042Z,8.47
2023-02-09T13:54:28.506Z,8.13
2023-02-09T14:00:29.475Z,8.70
2023-02-09T14:06:36.986Z,8.13
2023-02-09T14:13:00.263Z,9.33
2023-02-09T14:18:56.562Z,8.50
2023-02-09T14:24:50.015Z,8.60
2023-02-09T14:30:51.460Z,8.40
2023-02-09T14:36:53.691Z,7.77
2023-02-09T14:42:57.685Z,9.63
2023-02-09T14:48:51.727Z,8.40
2023-02-09T14:54:49.796Z,9.80
2023-02-09T15:00:42.731Z,9.70
2023-02-09T15:06:36.521Z,9.37
2023-02-09T15:12:30.993Z,8.63
2023-02-09T15:18:26.378Z,9.33
2023-02-09T15:24:19.392Z,8.63
2023-02-09T15:30:18.853Z,8.93
2023-02-09T15:36:15.744Z,10.00
2023-02-09T15:42:32.891Z,9.40
2023-02-09T15:48:27.308Z,9.00
2023-02-09T15:54:21.796Z,9.30
2023-02-09T16:00:21.646Z,10.07
2023-02-09T16:06:18.959Z,9.10
2023-02-09T16:12:12.799Z,9.80
2023-02-09T16:18:06.424Z,9.47
2023-02-09T16:24:03.453Z,9.50
2023-02-09T16:29:56.601Z,9.50
2023-02-09T16:35:53.450Z,10.10
2023-02-09T16:41:50.323Z,9.87
2023-02-09T16:47:45.984Z,10.63
2023-02-09T16:53:43.977Z,9.87
2023-02-09T16:59:38.272Z,9.57
2023-02-09T17:05:35.266Z,9.83
2023-02-09T17:11:29.488Z,9.03
2023-02-09T17:17:24.430Z,10.27
2023-02-09T17:23:19.004Z,9.60
2023-02-09T17:29:12.545Z,10.30
2023-02-09T17:35:14.144Z,9.43
2023-02-09T17:41:13.549Z,10.67
2023-02-09T17:47:07.059Z,11.17
2023-02-09T17:53:01.705Z,10.40
2023-02-09T17:58:56.177Z,10.27
2023-02-09T18:04:49.713Z,11.13
2023-02-09T18:10:44.544Z,10.87
2023-02-09T18:16:37.765Z,10.50
2023-02-09T18:22:30.917Z,11.90
2023-02-09T18:28:25.269Z,11.10
2023-02-09T18:34:18.416Z,10.93
2023-02-09T18:40:12.500Z,12.27
2023-02-09T18:46:07.122Z,12.30
2023-02-09T18:52:01.955Z,13.90
2023-02-09T18:57:55.342Z,13.90
2023-02-09T19:03:51.821Z,12.57
2023-02-09T19:09:45.867Z,13.93
2023-02-09T19:15:40.051Z,13.53
2023-02-09T19:21:34.430Z,13.27
2023-02-09T19:27:29.563Z,13.27
2023-02-09T19:33:23.356Z,13.10
2023-02-09T19:39:19.531Z,15.30
2023-02-09T19:45:12.936Z,14.70
2023-02-09T19:51:06.723Z,14.67
2023-02-09T19:57:03.538Z,14.53
2023-02-09T20:02:57.005Z,14.90
2023-02-09T20:08:50.151Z,14.50
2023-02-09T20:14:44.935Z,15.10
2023-02-09T20:20:42.058Z,14.27
2023-02-09T20:26:35.210Z,15.60
2023-02-09T20:32:30.540Z,15.07
2023-02-09T20:38:23.991Z,15.33
2023-02-09T20:44:34.980Z,15.10
2023-02-09T20:50:32.666Z,17.17
2023-02-09T20:56:26.438Z,15.60
2023-02-09T21:02:19.440Z,15.33
2023-02-09T21:08:14.331Z,15.73
2023-02-09T21:14:07.596Z,15.50
2023-02-09T21:20:01.556Z,17.73
2023-02-09T21:26:03.021Z,16.90
2023-02-09T21:31:56.774Z,17.00
2023-02-09T21:37:50.276Z,19.13
2023-02-09T21:43:45.002Z,17.57
2023-02-09T21:49:37.954Z,17.50
2023-02-09T21:55:31.437Z,17.10
2023-02-09T22:01:26.313Z,17.93
2023-02-09T22:07:19.799Z,18.73
2023-02-09T22:13:12.792Z,17.57
2023-02-09T22:19:07.184Z,18.47
2023-02-09T22:25:00.681Z,17.30
2023-02-09T22:30:54.193Z,18.77
2023-02-09T22:36:52.554Z,20.53
2023-02-09T22:42:47.082Z,18.73
2023-02-09T22:48:40.452Z,19.20
2023-02-09T22:54:35.381Z,20.10
2023-02-09T23:00:28.425Z,20.07
2023-02-09T23:06:25.008Z,20.03
2023-02-09T23:12:19.410Z,19.17
2023-02-09T23:18:12.498Z,18.03
2023-02-09T23:24:06.652Z,19.50
2023-02-09T23:30:01.460Z,19.73
2023-02-09T23:35:54.521Z,18.47
2023-02-09T23:41:48.051Z,19.43
2023-02-09T23:47:42.540Z,19.10
2023-02-09T23:53:36.660Z,18.43
2023-02-09T23:59:30.542Z,17.93
